sensor_id;sensor_type;location;lat;lon;timestamp;P1;durP1;ratioP1;P2;durP2;ratioP2
4174;SDS011;2101;48.290;14.382;2022-11-24T00:00:45;34.23;;;8.90;;
4174;SDS011;2101;48.290;14.382;2022-11-24T00:06:10;34.27;;;8.50;;
4174;SDS011;2101;48.290;14.382;2022-11-24T00:08:38;42.17;;;8.63;;
4174;SDS011;2101;48.290;14.382;2022-11-24T00:11:06;32.47;;;8.80;;
4174;SDS011;2101;48.290;14.382;2022-11-24T00:13:33;41.90;;;9.77;;
4174;SDS011;2101;48.290;14.382;2022-11-24T00:16:07;33.10;;;9.20;;
4174;SDS011;2101;48.290;14.382;2022-11-24T00:18:33;42.77;;;9.67;;
4174;SDS011;2101;48.290;14.382;2022-11-24T00:20:59;48.20;;;9.30;;
4174;SDS011;2101;48.290;14.382;2022-11-24T00:23:27;50.70;;;10.73;;
4174;SDS011;2101;48.290;14.382;2022-11-24T00:25:53;51.20;;;11.10;;
4174;SDS011;2101;48.290;14.382;2022-11-24T00:28:19;39.93;;;9.73;;
4174;SDS011;2101;48.290;14.382;2022-11-24T00:30:48;55.27;;;12.67;;
4174;SDS011;2101;48.290;14.382;2022-11-24T00:33:14;61.97;;;10.63;;
4174;SDS011;2101;48.290;14.382;2022-11-24T00:35:40;56.37;;;10.97;;
4174;SDS011;2101;48.290;14.382;2022-11-24T00:38:06;60.57;;;11.00;;
4174;SDS011;2101;48.290;14.382;2022-11-24T00:40:33;49.70;;;10.57;;
4174;SDS011;2101;48.290;14.382;2022-11-24T00:43:01;47.57;;;10.17;;
4174;SDS011;2101;48.290;14.382;2022-11-24T00:45:27;52.47;;;11.20;;
4174;SDS011;2101;48.290;14.382;2022-11-24T00:47:53;71.73;;;12.70;;
4174;SDS011;2101;48.290;14.382;2022-11-24T00:50:19;43.70;;;11.17;;
4174;SDS011;2101;48.290;14.382;2022-11-24T00:52:46;38.63;;;9.53;;
4174;SDS011;2101;48.290;14.382;2022-11-24T00:57:49;46.97;;;10.07;;
4174;SDS011;2101;48.290;14.382;2022-11-24T01:00:17;48.53;;;11.10;;
4174;SDS011;2101;48.290;14.382;2022-11-24T01:02:43;55.80;;;11.23;;
4174;SDS011;2101;48.290;14.382;2022-11-24T01:05:12;58.03;;;12.33;;
4174;SDS011;2101;48.290;14.382;2022-11-24T01:07:38;54.87;;;10.67;;
4174;SDS011;2101;48.290;14.382;2022-11-24T01:10:04;43.60;;;10.60;;
4174;SDS011;2101;48.290;14.382;2022-11-24T01:12:33;53.23;;;10.90;;
4174;SDS011;2101;48.290;14.382;2022-11-24T01:14:59;43.07;;;10.03;;
4174;SDS011;2101;48.290;14.382;2022-11-24T01:17:25;29.70;;;9.03;;
4174;SDS011;2101;48.290;14.382;2022-11-24T01:19:52;39.20;;;11.57;;
4174;SDS011;2101;48.290;14.382;2022-11-24T01:22:19;40.33;;;11.27;;
4174;SDS011;2101;48.290;14.382;2022-11-24T01:24:46;56.80;;;12.40;;
4174;SDS011;2101;48.290;14.382;2022-11-24T01:27:12;38.30;;;9.90;;
4174;SDS011;2101;48.290;14.382;2022-11-24T01:29:38;58.53;;;13.10;;
4174;SDS011;2101;48.290;14.382;2022-11-24T01:32:05;56.87;;;12.33;;
4174;SDS011;2101;48.290;14.382;2022-11-24T01:34:31;93.90;;;11.70;;
4174;SDS011;2101;48.290;14.382;2022-11-24T01:36:57;640.80;;;31.47;;
4174;SDS011;2101;48.290;14.382;2022-11-24T01:39:23;497.47;;;25.00;;
4174;SDS011;2101;48.290;14.382;2022-11-24T01:41:49;830.27;;;43.10;;
4174;SDS011;2101;48.290;14.382;2022-11-24T01:44:21;668.07;;;27.90;;
4174;SDS011;2101;48.290;14.382;2022-11-24T01:46:48;740.13;;;34.80;;
4174;SDS011;2101;48.290;14.382;2022-11-24T01:49:35;200.47;;;12.33;;
4174;SDS011;2101;48.290;14.382;2022-11-24T01:52:13;555.20;;;29.20;;
4174;SDS011;2101;48.290;14.382;2022-11-24T01:54:42;204.93;;;13.33;;
4174;SDS011;2101;48.290;14.382;2022-11-24T01:57:11;172.60;;;11.13;;
4174;SDS011;2101;48.290;14.382;2022-11-24T01:59:39;306.43;;;18.33;;
4174;SDS011;2101;48.290;14.382;2022-11-24T02:02:06;336.60;;;16.27;;
4174;SDS011;2101;48.290;14.382;2022-11-24T02:04:32;117.67;;;13.33;;
4174;SDS011;2101;48.290;14.382;2022-11-24T02:07:00;268.60;;;14.37;;
4174;SDS011;2101;48.290;14.382;2022-11-24T02:09:39;197.53;;;10.77;;
4174;SDS011;2101;48.290;14.382;2022-11-24T02:12:07;390.27;;;18.23;;
4174;SDS011;2101;48.290;14.382;2022-11-24T02:14:34;55.67;;;7.90;;
4174;SDS011;2101;48.290;14.382;2022-11-24T02:17:01;545.67;;;23.10;;
4174;SDS011;2101;48.290;14.382;2022-11-24T02:19:31;329.83;;;15.00;;
4174;SDS011;2101;48.290;14.382;2022-11-24T02:22:00;394.80;;;17.13;;
4174;SDS011;2101;48.290;14.382;2022-11-24T02:26:52;55.10;;;9.97;;
4174;SDS011;2101;48.290;14.382;2022-11-24T02:29:20;35.20;;;8.97;;
4174;SDS011;2101;48.290;14.382;2022-11-24T02:31:48;29.47;;;10.20;;
4174;SDS011;2101;48.290;14.382;2022-11-24T02:34:16;32.80;;;10.27;;
4174;SDS011;2101;48.290;14.382;2022-11-24T02:36:43;40.23;;;12.10;;
4174;SDS011;2101;48.290;14.382;2022-11-24T02:39:14;35.33;;;9.67;;
4174;SDS011;2101;48.290;14.382;2022-11-24T02:41:45;37.50;;;11.00;;
4174;SDS011;2101;48.290;14.382;2022-11-24T02:44:14;41.90;;;10.67;;
4174;SDS011;2101;48.290;14.382;2022-11-24T02:46:41;37.13;;;11.17;;
4174;SDS011;2101;48.290;14.382;2022-11-24T02:49:07;37.97;;;11.93;;
4174;SDS011;2101;48.290;14.382;2022-11-24T02:51:33;36.20;;;11.03;;
4174;SDS011;2101;48.290;14.382;2022-11-24T02:54:05;34.00;;;11.27;;
4174;SDS011;2101;48.290;14.382;2022-11-24T02:56:36;45.53;;;11.77;;
4174;SDS011;2101;48.290;14.382;2022-11-24T02:59:02;32.63;;;10.77;;
4174;SDS011;2101;48.290;14.382;2022-11-24T03:01:29;36.10;;;10.20;;
4174;SDS011;2101;48.290;14.382;2022-11-24T03:03:59;39.20;;;12.07;;
4174;SDS011;2101;48.290;14.382;2022-11-24T03:06:26;34.97;;;10.10;;
4174;SDS011;2101;48.290;14.382;2022-11-24T03:08:52;34.23;;;10.17;;
4174;SDS011;2101;48.290;14.382;2022-11-24T03:11:18;36.83;;;10.03;;
4174;SDS011;2101;48.290;14.382;2022-11-24T03:13:44;34.03;;;9.50;;
4174;SDS011;2101;48.290;14.382;2022-11-24T03:16:14;33.87;;;10.03;;
4174;SDS011;2101;48.290;14.382;2022-11-24T03:18:41;35.57;;;9.80;;
4174;SDS011;2101;48.290;14.382;2022-11-24T03:21:12;36.67;;;10.20;;
4174;SDS011;2101;48.290;14.382;2022-11-24T03:23:39;26.47;;;8.50;;
4174;SDS011;2101;48.290;14.382;2022-11-24T03:28:53;24.03;;;7.30;;
4174;SDS011;2101;48.290;14.382;2022-11-24T03:36:31;24.37;;;7.20;;
4174;SDS011;2101;48.290;14.382;2022-11-24T03:38:59;24.07;;;6.43;;
4174;SDS011;2101;48.290;14.382;2022-11-24T03:41:25;22.73;;;6.60;;
4174;SDS011;2101;48.290;14.382;2022-11-24T03:43:51;21.00;;;5.47;;
4174;SDS011;2101;48.290;14.382;2022-11-24T03:46:19;20.60;;;5.63;;
4174;SDS011;2101;48.290;14.382;2022-11-24T03:48:45;27.00;;;5.30;;
4174;SDS011;2101;48.290;14.382;2022-11-24T03:51:12;21.67;;;6.40;;
4174;SDS011;2101;48.290;14.382;2022-11-24T03:53:38;23.80;;;7.10;;
4174;SDS011;2101;48.290;14.382;2022-11-24T03:56:05;19.70;;;5.73;;
4174;SDS011;2101;48.290;14.382;2022-11-24T03:58:32;23.30;;;6.30;;
4174;SDS011;2101;48.290;14.382;2022-11-24T04:01:03;19.50;;;5.60;;
4174;SDS011;2101;48.290;14.382;2022-11-24T04:03:38;19.80;;;5.10;;
4174;SDS011;2101;48.290;14.382;2022-11-24T04:06:04;18.07;;;5.17;;
4174;SDS011;2101;48.290;14.382;2022-11-24T04:08:31;20.30;;;5.50;;
4174;SDS011;2101;48.290;14.382;2022-11-24T04:11:13;19.03;;;4.73;;
4174;SDS011;2101;48.290;14.382;2022-11-24T04:14:02;22.97;;;6.03;;
4174;SDS011;2101;48.290;14.382;2022-11-24T04:16:30;22.83;;;5.97;;
4174;SDS011;2101;48.290;14.382;2022-11-24T04:19:01;21.10;;;5.47;;
4174;SDS011;2101;48.290;14.382;2022-11-24T04:21:28;36.33;;;4.60;;
4174;SDS011;2101;48.290;14.382;2022-11-24T04:23:55;19.37;;;4.90;;
4174;SDS011;2101;48.290;14.382;2022-11-24T04:26:26;20.33;;;5.00;;
4174;SDS011;2101;48.290;14.382;2022-11-24T04:29:01;24.00;;;5.17;;
4174;SDS011;2101;48.290;14.382;2022-11-24T04:31:31;20.23;;;5.30;;
4174;SDS011;2101;48.290;14.382;2022-11-24T04:34:00;18.87;;;4.87;;
4174;SDS011;2101;48.290;14.382;2022-11-24T05:10:52;13.60;;;2.80;;
4174;SDS011;2101;48.290;14.382;2022-11-24T05:34:07;17.70;;;3.60;;
4174;SDS011;2101;48.290;14.382;2022-11-24T05:55:14;16.03;;;3.77;;
4174;SDS011;2101;48.290;14.382;2022-11-24T05:57:41;17.00;;;3.27;;
4174;SDS011;2101;48.290;14.382;2022-11-24T06:00:13;14.17;;;3.53;;
4174;SDS011;2101;48.290;14.382;2022-11-24T06:13:57;16.10;;;4.20;;
4174;SDS011;2101;48.290;14.382;2022-11-24T06:16:27;16.00;;;3.10;;
4174;SDS011;2101;48.290;14.382;2022-11-24T06:21:32;17.90;;;3.70;;
4174;SDS011;2101;48.290;14.382;2022-11-24T06:24:09;16.13;;;3.77;;
4174;SDS011;2101;48.290;14.382;2022-11-24T08:17:22;20.67;;;3.57;;
4174;SDS011;2101;48.290;14.382;2022-11-24T08:19:48;14.43;;;3.13;;
4174;SDS011;2101;48.290;14.382;2022-11-24T08:22:14;16.40;;;3.77;;
4174;SDS011;2101;48.290;14.382;2022-11-24T08:24:41;14.43;;;2.77;;
4174;SDS011;2101;48.290;14.382;2022-11-24T08:27:12;22.47;;;3.40;;
4174;SDS011;2101;48.290;14.382;2022-11-24T08:29:38;17.13;;;3.50;;
4174;SDS011;2101;48.290;14.382;2022-11-24T09:24:34;16.03;;;3.67;;
4174;SDS011;2101;48.290;14.382;2022-11-24T09:27:00;19.63;;;3.20;;
4174;SDS011;2101;48.290;14.382;2022-11-24T09:29:26;17.60;;;3.53;;
4174;SDS011;2101;48.290;14.382;2022-11-24T09:31:52;20.20;;;3.67;;
4174;SDS011;2101;48.290;14.382;2022-11-24T09:34:18;14.27;;;2.87;;
4174;SDS011;2101;48.290;14.382;2022-11-24T09:36:44;17.83;;;3.70;;
4174;SDS011;2101;48.290;14.382;2022-11-24T09:39:11;15.77;;;2.80;;
4174;SDS011;2101;48.290;14.382;2022-11-24T09:49:58;22.50;;;2.57;;
4174;SDS011;2101;48.290;14.382;2022-11-24T09:52:17;18.53;;;2.97;;
4174;SDS011;2101;48.290;14.382;2022-11-24T09:54:56;14.30;;;2.77;;
4174;SDS011;2101;48.290;14.382;2022-11-24T09:57:24;13.83;;;2.53;;
4174;SDS011;2101;48.290;14.382;2022-11-24T09:59:51;13.77;;;2.73;;
4174;SDS011;2101;48.290;14.382;2022-11-24T10:02:19;18.10;;;2.90;;
4174;SDS011;2101;48.290;14.382;2022-11-24T10:04:45;15.50;;;2.10;;
4174;SDS011;2101;48.290;14.382;2022-11-24T10:27:43;15.40;;;2.27;;
4174;SDS011;2101;48.290;14.382;2022-11-24T10:30:19;11.43;;;1.40;;
4174;SDS011;2101;48.290;14.382;2022-11-24T10:32:50;14.00;;;1.97;;
4174;SDS011;2101;48.290;14.382;2022-11-24T10:35:18;12.00;;;1.60;;
4174;SDS011;2101;48.290;14.382;2022-11-24T10:40:21;14.30;;;1.63;;
4174;SDS011;2101;48.290;14.382;2022-11-24T10:42:48;15.90;;;2.33;;
4174;SDS011;2101;48.290;14.382;2022-11-24T10:45:17;18.60;;;2.07;;
4174;SDS011;2101;48.290;14.382;2022-11-24T10:47:46;17.73;;;2.47;;
4174;SDS011;2101;48.290;14.382;2022-11-24T10:50:19;18.03;;;2.40;;
4174;SDS011;2101;48.290;14.382;2022-11-24T10:55:15;14.00;;;1.60;;
4174;SDS011;2101;48.290;14.382;2022-11-24T10:57:41;17.27;;;1.63;;
4174;SDS011;2101;48.290;14.382;2022-11-24T11:02:45;12.20;;;1.50;;
4174;SDS011;2101;48.290;14.382;2022-11-24T11:05:32;17.63;;;2.53;;
4174;SDS011;2101;48.290;14.382;2022-11-24T11:10:41;14.00;;;2.03;;
4174;SDS011;2101;48.290;14.382;2022-11-24T11:15:49;15.23;;;2.43;;
4174;SDS011;2101;48.290;14.382;2022-11-24T11:18:16;15.20;;;2.20;;
4174;SDS011;2101;48.290;14.382;2022-11-24T11:20:55;16.13;;;2.13;;
4174;SDS011;2101;48.290;14.382;2022-11-24T11:23:28;17.73;;;2.70;;
4174;SDS011;2101;48.290;14.382;2022-11-24T11:28:40;13.93;;;1.47;;
4174;SDS011;2101;48.290;14.382;2022-11-24T11:31:07;22.20;;;2.23;;
4174;SDS011;2101;48.290;14.382;2022-11-24T11:33:52;13.93;;;2.10;;
4174;SDS011;2101;48.290;14.382;2022-11-24T11:36:19;12.90;;;1.67;;
4174;SDS011;2101;48.290;14.382;2022-11-24T11:38:45;13.60;;;1.57;;
4174;SDS011;2101;48.290;14.382;2022-11-24T11:41:21;15.07;;;2.17;;
4174;SDS011;2101;48.290;14.382;2022-11-24T11:43:49;19.17;;;2.20;;
4174;SDS011;2101;48.290;14.382;2022-11-24T11:46:19;14.03;;;1.63;;
4174;SDS011;2101;48.290;14.382;2022-11-24T11:48:45;13.13;;;1.33;;
4174;SDS011;2101;48.290;14.382;2022-11-24T12:15:55;14.20;;;1.93;;
4174;SDS011;2101;48.290;14.382;2022-11-24T12:22:22;15.27;;;1.37;;
4174;SDS011;2101;48.290;14.382;2022-11-24T12:25:25;13.37;;;1.20;;
4174;SDS011;2101;48.290;14.382;2022-11-24T12:28:18;14.63;;;1.30;;
4174;SDS011;2101;48.290;14.382;2022-11-24T12:31:05;11.10;;;1.20;;
4174;SDS011;2101;48.290;14.382;2022-11-24T13:58:36;12.67;;;1.00;;
4174;SDS011;2101;48.290;14.382;2022-11-24T14:01:13;16.90;;;1.17;;
4174;SDS011;2101;48.290;14.382;2022-11-24T14:04:17;13.13;;;1.43;;
4174;SDS011;2101;48.290;14.382;2022-11-24T14:06:57;13.87;;;1.50;;
4174;SDS011;2101;48.290;14.382;2022-11-24T14:09:32;14.00;;;1.10;;
4174;SDS011;2101;48.290;14.382;2022-11-24T14:12:03;10.90;;;0.77;;
4174;SDS011;2101;48.290;14.382;2022-11-24T14:14:31;11.23;;;1.00;;
4174;SDS011;2101;48.290;14.382;2022-11-24T14:17:19;14.13;;;1.40;;
4174;SDS011;2101;48.290;14.382;2022-11-24T21:01:54;12.67;;;1.90;;
4174;SDS011;2101;48.290;14.382;2022-11-24T21:04:28;11.67;;;1.60;;
4174;SDS011;2101;48.290;14.382;2022-11-24T21:27:42;24.33;;;2.53;;
4174;SDS011;2101;48.290;14.382;2022-11-24T21:30:09;16.33;;;2.67;;
4174;SDS011;2101;48.290;14.382;2022-11-24T21:32:35;17.37;;;2.10;;
4174;SDS011;2101;48.290;14.382;2022-11-24T21:35:02;17.67;;;2.20;;
4174;SDS011;2101;48.290;14.382;2022-11-24T21:37:28;14.53;;;2.23;;
4174;SDS011;2101;48.290;14.382;2022-11-24T21:39:54;21.13;;;2.63;;
4174;SDS011;2101;48.290;14.382;2022-11-24T21:42:20;18.67;;;2.30;;
4174;SDS011;2101;48.290;14.382;2022-11-24T21:44:46;14.83;;;2.10;;
4174;SDS011;2101;48.290;14.382;2022-11-24T21:47:12;13.70;;;2.13;;
4174;SDS011;2101;48.290;14.382;2022-11-24T21:49:38;14.27;;;2.20;;
4174;SDS011;2101;48.290;14.382;2022-11-24T21:52:05;14.90;;;2.10;;
4174;SDS011;2101;48.290;14.382;2022-11-24T21:54:31;12.97;;;2.20;;
4174;SDS011;2101;48.290;14.382;2022-11-24T21:56:57;17.10;;;2.77;;
4174;SDS011;2101;48.290;14.382;2022-11-24T21:59:23;15.03;;;2.83;;
4174;SDS011;2101;48.290;14.382;2022-11-24T22:01:49;16.87;;;2.90;;
4174;SDS011;2101;48.290;14.382;2022-11-24T22:04:15;15.33;;;2.60;;
4174;SDS011;2101;48.290;14.382;2022-11-24T22:06:41;21.80;;;3.00;;
4174;SDS011;2101;48.290;14.382;2022-11-24T22:09:09;28.50;;;6.20;;
4174;SDS011;2101;48.290;14.382;2022-11-24T22:11:35;23.40;;;6.10;;
4174;SDS011;2101;48.290;14.382;2022-11-24T22:14:01;23.87;;;5.97;;
4174;SDS011;2101;48.290;14.382;2022-11-24T22:16:27;27.43;;;6.33;;
4174;SDS011;2101;48.290;14.382;2022-11-24T22:18:53;17.33;;;4.03;;
4174;SDS011;2101;48.290;14.382;2022-11-24T22:21:21;24.40;;;3.20;;
4174;SDS011;2101;48.290;14.382;2022-11-24T22:24:07;16.30;;;2.30;;
4174;SDS011;2101;48.290;14.382;2022-11-24T22:26:34;22.47;;;2.43;;
4174;SDS011;2101;48.290;14.382;2022-11-24T22:29:00;20.20;;;2.60;;
4174;SDS011;2101;48.290;14.382;2022-11-24T22:31:27;16.87;;;3.10;;
4174;SDS011;2101;48.290;14.382;2022-11-24T22:33:54;21.07;;;3.67;;
4174;SDS011;2101;48.290;14.382;2022-11-24T22:36:21;18.77;;;3.60;;
4174;SDS011;2101;48.290;14.382;2022-11-24T22:38:57;27.13;;;3.20;;
4174;SDS011;2101;48.290;14.382;2022-11-24T22:41:26;16.97;;;3.13;;
4174;SDS011;2101;48.290;14.382;2022-11-24T22:43:53;18.57;;;2.63;;
4174;SDS011;2101;48.290;14.382;2022-11-24T22:46:20;16.43;;;2.83;;
4174;SDS011;2101;48.290;14.382;2022-11-24T22:48:47;13.43;;;2.83;;
4174;SDS011;2101;48.290;14.382;2022-11-24T22:51:15;15.70;;;2.97;;
4174;SDS011;2101;48.290;14.382;2022-11-24T22:53:45;19.23;;;2.83;;
4174;SDS011;2101;48.290;14.382;2022-11-24T22:56:11;17.77;;;2.87;;
4174;SDS011;2101;48.290;14.382;2022-11-24T22:58:38;17.77;;;3.47;;
4174;SDS011;2101;48.290;14.382;2022-11-24T23:01:08;24.23;;;3.00;;
4174;SDS011;2101;48.290;14.382;2022-11-24T23:03:35;19.67;;;3.43;;
4174;SDS011;2101;48.290;14.382;2022-11-24T23:06:02;13.63;;;2.40;;
4174;SDS011;2101;48.290;14.382;2022-11-24T23:08:28;15.90;;;2.43;;
4174;SDS011;2101;48.290;14.382;2022-11-24T23:11:02;16.13;;;2.73;;
4174;SDS011;2101;48.290;14.382;2022-11-24T23:13:28;20.00;;;2.90;;
4174;SDS011;2101;48.290;14.382;2022-11-24T23:16:04;15.57;;;2.87;;
4174;SDS011;2101;48.290;14.382;2022-11-24T23:18:31;16.33;;;3.00;;
4174;SDS011;2101;48.290;14.382;2022-11-24T23:21:13;13.40;;;1.93;;
4174;SDS011;2101;48.290;14.382;2022-11-24T23:23:40;14.90;;;2.30;;
4174;SDS011;2101;48.290;14.382;2022-11-24T23:26:07;20.90;;;2.60;;
4174;SDS011;2101;48.290;14.382;2022-11-24T23:28:34;22.80;;;3.20;;
4174;SDS011;2101;48.290;14.382;2022-11-24T23:31:01;22.00;;;3.30;;
4174;SDS011;2101;48.290;14.382;2022-11-24T23:33:28;19.17;;;2.83;;
4174;SDS011;2101;48.290;14.382;2022-11-24T23:35:54;15.63;;;2.20;;
4174;SDS011;2101;48.290;14.382;2022-11-24T23:38:20;13.90;;;1.80;;
4174;SDS011;2101;48.290;14.382;2022-11-24T23:40:46;13.60;;;2.57;;
4174;SDS011;2101;48.290;14.382;2022-11-24T23:43:12;19.40;;;3.10;;
4174;SDS011;2101;48.290;14.382;2022-11-24T23:45:38;30.10;;;4.03;;
4174;SDS011;2101;48.290;14.382;2022-11-24T23:48:04;22.37;;;4.87;;
4174;SDS011;2101;48.290;14.382;2022-11-24T23:50:33;18.30;;;4.40;;
4174;SDS011;2101;48.290;14.382;2022-11-24T23:52:59;23.10;;;5.63;;
4174;SDS011;2101;48.290;14.382;2022-11-24T23:55:25;22.80;;;4.63;;
4174;SDS011;2101;48.290;14.382;2022-11-24T23:57:52;25.53;;;4.80;;
